CheckWX is a tool to help pilots better visualize weather data.  It is not intended as a substitute for an official pre-flight weather briefing.

20:36:23 UTC

KOMA METAR
Eppley Airfield Airport
Omaha, Nebraska, USA
Current

44 mins ago

KOMA 181952Z 01011KT 10SM FEW200 M09/M14 A3051 RMK AO2 SLP349 T10891139 $
Observed
Feb-18 @ 19:52 UTC
Wind
  • 010° at 11 KTS
Visibility
10 SM
Flight Rules
VFR
Cloud Levels
  • Few at 20,000' AGL
Temperature
-9°C / 16°F
Dewpoint
-14°C / 7°F
Humidity
67%
Altimeter
30.51" Hg
Pressure
1034.9 hPa
Previous

2 hours ago

KOMA 181852Z 02010KT 10SM FEW200 M08/M13 A3052 RMK AO2 SLP353 T10831133 $
Observed
Feb-18 @ 18:52 UTC
Wind
  • 020° at 10 KTS
Visibility
10 SM
Flight Rules
VFR
Cloud Levels
  • Few at 20,000' AGL
Temperature
-8°C / 18°F
Dewpoint
-13°C / 9°F
Humidity
68%
Altimeter
30.52" Hg
Pressure
1035.3 hPa
Previous

3 hours ago

KOMA 181752Z 01008KT 10SM CLR M09/M14 A3053 RMK AO2 SLP354 4/009 933009 T10891139 11089 21150 53023 $
Observed
Feb-18 @ 17:52 UTC
Wind
  • 010° at 8 KTS
Visibility
10 SM
Flight Rules
VFR
Cloud Levels
  • Clear skies
Temperature
-9°C / 16°F
Dewpoint
-14°C / 7°F
Humidity
67%
Altimeter
30.53" Hg
Pressure
1035.4 hPa
Snow Depth
9"